createdAt,value
2023-04-11T00:01:38.936Z,12.57
2023-04-11T00:05:21.168Z,10.90
2023-04-11T00:09:03.662Z,8.95
2023-04-11T00:12:45.469Z,12.40
2023-04-11T00:16:27.420Z,11.98
2023-04-11T00:20:11.018Z,11.43
2023-04-11T00:23:54.105Z,11.75
2023-04-11T00:27:35.929Z,9.75
2023-04-11T00:31:17.764Z,10.00
2023-04-11T00:34:59.645Z,8.38
2023-04-11T00:38:42.287Z,9.88
2023-04-11T00:42:24.218Z,9.18
2023-04-11T00:46:06.414Z,10.15
2023-04-11T00:49:48.229Z,4.70
2023-04-11T00:53:32.832Z,8.88
2023-04-11T00:57:15.633Z,8.07
2023-04-11T01:00:57.399Z,9.68
2023-04-11T01:04:40.257Z,6.53
2023-04-11T01:08:22.769Z,8.70
2023-04-11T01:12:06.445Z,6.18
2023-04-11T01:15:48.388Z,14.15
2023-04-11T01:19:31.247Z,8.88
2023-04-11T01:23:14.717Z,13.05
2023-04-11T01:26:57.202Z,8.48
2023-04-11T01:30:39.073Z,13.57
2023-04-11T01:34:22.662Z,10.38
2023-04-11T01:38:05.662Z,9.10
2023-04-11T01:41:47.904Z,10.25
2023-04-11T01:45:30.804Z,10.82
2023-04-11T01:49:17.974Z,7.45
2023-04-11T01:52:59.802Z,10.73
2023-04-11T01:56:41.651Z,11.00
2023-04-11T02:00:24.092Z,8.77
2023-04-11T02:04:06.184Z,8.85
2023-04-11T02:07:48.045Z,11.45
2023-04-11T02:11:29.842Z,14.13
2023-04-11T02:15:11.844Z,11.27
2023-04-11T02:18:54.377Z,19.90
2023-04-11T02:22:36.533Z,7.90
2023-04-11T02:26:18.361Z,13.18
2023-04-11T02:30:00.935Z,10.48
2023-04-11T02:33:42.769Z,10.48
2023-04-11T02:37:26.118Z,9.32
2023-04-11T02:41:08.506Z,15.80
2023-04-11T02:44:50.322Z,10.50
2023-04-11T02:48:32.176Z,6.15
2023-04-11T02:52:13.964Z,10.23
2023-04-11T02:55:55.955Z,9.57
2023-04-11T02:59:38.188Z,13.30
2023-04-11T03:03:20.265Z,12.02
2023-04-11T03:07:02.199Z,11.82
2023-04-11T03:10:44.003Z,9.88
2023-04-11T03:14:25.805Z,8.50
2023-04-11T03:18:07.651Z,5.80
2023-04-11T03:21:49.483Z,5.13
2023-04-11T03:25:31.294Z,1.95
2023-04-11T03:29:13.092Z,2.90
2023-04-11T03:32:55.157Z,6.03
2023-04-11T03:36:36.974Z,3.92
2023-04-11T03:40:18.908Z,2.60
2023-04-11T03:44:00.904Z,3.17
2023-04-11T03:47:42.811Z,3.08
2023-04-11T03:51:24.639Z,5.18
2023-04-11T03:55:06.720Z,7.82
2023-04-11T03:58:48.480Z,5.70
2023-04-11T04:02:30.363Z,4.80
2023-04-11T04:06:12.141Z,5.25
2023-04-11T04:09:54.445Z,7.05
2023-04-11T04:13:36.260Z,5.25
2023-04-11T04:17:18.131Z,3.40
2023-04-11T04:20:59.984Z,7.20
2023-04-11T04:24:47.895Z,3.95
2023-04-11T04:28:29.813Z,6.72
2023-04-11T04:32:20.876Z,7.28
2023-04-11T04:36:04.362Z,4.97
2023-04-11T04:39:50.881Z,3.78
2023-04-11T04:43:33.042Z,5.43
2023-04-11T04:47:15.587Z,4.35
2023-04-11T04:50:57.437Z,9.60
2023-04-11T04:54:40.124Z,7.13
2023-04-11T04:58:21.897Z,6.50
2023-04-11T05:02:04.191Z,3.15
2023-04-11T05:05:46.048Z,6.68
2023-04-11T05:09:27.979Z,6.18
2023-04-11T05:13:09.837Z,7.43
2023-04-11T05:16:51.869Z,10.38
2023-04-11T05:20:33.761Z,7.20
2023-04-11T05:24:15.623Z,5.55
2023-04-11T05:27:57.395Z,5.30
2023-04-11T05:31:39.222Z,4.70
2023-04-11T05:35:21.485Z,7.28
2023-04-11T05:39:04.072Z,11.35
2023-04-11T05:42:46.151Z,5.68
2023-04-11T05:46:29.588Z,11.20
2023-04-11T05:50:11.606Z,6.47
2023-04-11T05:53:53.490Z,7.18
2023-04-11T05:57:35.690Z,8.57
2023-04-11T06:01:18.569Z,8.68
2023-04-11T06:05:01.556Z,12.18
2023-04-11T06:08:43.470Z,8.05
2023-04-11T06:12:25.477Z,7.50
2023-04-11T06:16:07.799Z,11.05
2023-04-11T06:19:49.643Z,9.10
2023-04-11T06:23:31.406Z,11.30
2023-04-11T06:27:14.049Z,13.00
2023-04-11T06:30:55.848Z,9.02
2023-04-11T06:34:39.540Z,10.18
2023-04-11T06:38:21.364Z,7.05
2023-04-11T06:42:03.404Z,8.30
2023-04-11T06:45:47.143Z,8.40
2023-04-11T06:49:29.361Z,13.32
2023-04-11T06:53:11.229Z,12.27
2023-04-11T06:56:53.274Z,5.05
2023-04-11T07:00:35.993Z,5.57
2023-04-11T07:04:18.050Z,5.28
2023-04-11T07:08:00.906Z,15.27
2023-04-11T07:11:42.730Z,9.05
2023-04-11T07:15:24.507Z,6.68
2023-04-11T07:19:06.518Z,6.03
2023-04-11T07:22:48.307Z,9.20
2023-04-11T07:26:32.691Z,5.35
2023-04-11T07:30:15.010Z,5.57
2023-04-11T07:33:57.032Z,6.75
2023-04-11T07:37:38.937Z,3.90
2023-04-11T07:41:21.023Z,7.85
2023-04-11T07:45:02.942Z,8.32
2023-04-11T07:48:44.816Z,5.05
2023-04-11T07:52:26.641Z,7.45
2023-04-11T07:56:11.304Z,9.27
2023-04-11T07:59:53.066Z,5.80
2023-04-11T08:03:35.216Z,7.10
2023-04-11T08:07:17.622Z,10.27
2023-04-11T08:10:59.424Z,11.10
2023-04-11T08:14:41.290Z,8.35
2023-04-11T08:18:24.223Z,9.18
2023-04-11T08:22:06.114Z,8.50
2023-04-11T08:25:47.912Z,10.60
2023-04-11T08:29:29.667Z,9.35
2023-04-11T08:33:12.220Z,6.95
2023-04-11T08:36:54.167Z,11.32
2023-04-11T08:40:36.377Z,13.43
2023-04-11T08:44:18.281Z,9.65
2023-04-11T08:48:00.266Z,10.35
2023-04-11T08:51:44.720Z,15.85
2023-04-11T08:55:26.525Z,9.48
2023-04-11T08:59:08.326Z,11.88
2023-04-11T09:02:58.208Z,10.70
2023-04-11T09:06:42.703Z,16.25
2023-04-11T09:10:25.605Z,9.93
2023-04-11T09:14:09.966Z,17.23
2023-04-11T09:17:54.493Z,10.48
2023-04-11T09:21:50.073Z,13.88
2023-04-11T09:25:44.175Z,11.25
2023-04-11T09:29:42.304Z,9.70
2023-04-11T09:33:31.600Z,8.95
2023-04-11T09:37:13.591Z,12.18
2023-04-11T09:40:56.556Z,9.68
2023-04-11T09:44:38.577Z,12.63
2023-04-11T09:48:22.092Z,21.92
2023-04-11T09:52:06.882Z,10.82
2023-04-11T09:55:48.745Z,11.50
2023-04-11T09:59:32.275Z,11.50
2023-04-11T10:03:14.191Z,19.40
2023-04-11T10:07:14.217Z,7.55
2023-04-11T10:10:57.148Z,9.63
2023-04-11T10:14:39.060Z,7.78
2023-04-11T10:18:21.667Z,6.78
2023-04-11T10:22:03.500Z,7.68
2023-04-11T10:25:50.649Z,8.07
2023-04-11T10:29:40.767Z,12.93
2023-04-11T10:33:26.065Z,9.65
2023-04-11T10:37:09.389Z,6.18
2023-04-11T10:41:16.591Z,8.05
2023-04-11T10:45:20.007Z,6.95
2023-04-11T10:49:03.674Z,6.97
2023-04-11T10:52:45.579Z,8.35
2023-04-11T10:56:50.600Z,9.57
2023-04-11T11:01:32.316Z,10.15
2023-04-11T11:05:20.711Z,9.00
2023-04-11T11:09:21.033Z,9.60
2023-04-11T11:13:05.314Z,8.45
2023-04-11T11:16:47.198Z,17.83
2023-04-11T11:20:31.635Z,9.07
2023-04-11T11:24:13.489Z,13.57
2023-04-11T11:28:05.996Z,6.72
2023-04-11T11:31:52.214Z,8.77
2023-04-11T11:35:34.159Z,7.90
2023-04-11T11:39:16.039Z,7.63
2023-04-11T11:42:57.875Z,4.20
2023-04-11T11:46:39.742Z,6.82
2023-04-11T11:50:29.068Z,5.50
2023-04-11T11:54:11.906Z,6.93
2023-04-11T11:57:53.783Z,5.70
2023-04-11T12:01:36.582Z,6.00
2023-04-11T12:05:19.046Z,7.72
2023-04-11T12:09:11.119Z,6.88
2023-04-11T12:12:54.399Z,8.35
2023-04-11T12:16:39.530Z,9.55
2023-04-11T12:20:26.801Z,13.85
2023-04-11T12:24:09.938Z,10.43
2023-04-11T12:27:51.797Z,12.80
2023-04-11T12:31:33.656Z,8.57
2023-04-11T12:35:15.562Z,9.10
2023-04-11T12:38:57.579Z,9.57
2023-04-11T12:42:49.400Z,9.57
2023-04-11T12:46:37.469Z,7.85
2023-04-11T12:50:19.618Z,8.90
2023-04-11T12:54:01.712Z,13.80
2023-04-11T12:57:43.869Z,6.18
2023-04-11T13:01:26.388Z,5.47
2023-04-11T13:05:10.429Z,4.50
2023-04-11T13:08:52.759Z,5.43
2023-04-11T13:12:39.722Z,7.13
2023-04-11T13:16:21.602Z,3.40
2023-04-11T13:20:07.985Z,5.82
2023-04-11T13:23:49.997Z,8.60
2023-04-11T13:27:32.124Z,5.68
2023-04-11T13:31:14.282Z,6.07
2023-04-11T13:34:56.103Z,5.07
2023-04-11T13:38:37.940Z,3.60
2023-04-11T13:42:21.832Z,7.28
2023-04-11T13:46:03.773Z,3.28
2023-04-11T13:49:45.677Z,6.00
2023-04-11T13:53:27.962Z,3.13
2023-04-11T13:57:09.869Z,3.35
2023-04-11T14:00:51.768Z,5.15
2023-04-11T14:04:33.641Z,2.10
2023-04-11T14:08:15.500Z,3.10
2023-04-11T14:11:57.756Z,3.10
2023-04-11T14:15:39.548Z,4.30
2023-04-11T14:19:22.753Z,2.45
2023-04-11T14:23:04.859Z,1.95
2023-04-11T14:26:46.697Z,2.03
2023-04-11T14:30:28.701Z,2.78
2023-04-11T14:34:10.784Z,3.17
2023-04-11T14:37:52.599Z,2.03
2023-04-11T14:41:34.451Z,2.03
2023-04-11T14:45:16.289Z,3.17
2023-04-11T14:48:58.122Z,4.30
2023-04-11T14:52:39.909Z,3.10
2023-04-11T14:56:25.555Z,2.72
2023-04-11T15:00:10.000Z,2.28
2023-04-11T15:03:51.926Z,5.35
2023-04-11T15:07:33.757Z,6.43
2023-04-11T15:11:15.553Z,5.68
2023-04-11T15:14:57.352Z,4.05
2023-04-11T15:18:40.661Z,2.67
2023-04-11T15:22:22.812Z,4.38
2023-04-11T15:26:06.042Z,2.22
2023-04-11T15:29:48.144Z,5.25
2023-04-11T15:33:31.814Z,5.03
2023-04-11T15:37:13.734Z,6.00
2023-04-11T15:40:58.362Z,5.18
2023-04-11T15:44:40.347Z,5.63
2023-04-11T15:48:22.311Z,6.97
2023-04-11T15:52:04.382Z,3.00
2023-04-11T15:55:47.346Z,9.60
2023-04-11T15:59:29.502Z,3.63
2023-04-11T16:03:11.601Z,4.85
2023-04-11T16:06:53.503Z,3.92
2023-04-11T16:10:35.485Z,5.20
2023-04-11T16:14:17.311Z,3.90
2023-04-11T16:17:59.206Z,5.20
2023-04-11T16:21:41.228Z,5.18
2023-04-11T16:25:23.188Z,3.53
2023-04-11T16:29:05.021Z,3.53
2023-04-11T16:32:47.616Z,3.42
2023-04-11T16:36:30.080Z,3.80
2023-04-11T16:40:12.043Z,4.40
2023-04-11T16:43:53.979Z,3.90
2023-04-11T16:47:36.578Z,6.00
2023-04-11T16:51:18.920Z,5.60
2023-04-11T16:55:01.961Z,3.30
2023-04-11T16:58:44.097Z,4.22
2023-04-11T17:02:26.502Z,2.88
2023-04-11T17:06:16.256Z,3.30
2023-04-11T17:09:58.273Z,1.73
2023-04-11T17:13:45.501Z,3.22
2023-04-11T17:21:10.851Z,3.60
2023-04-11T17:24:54.238Z,3.47
2023-04-11T17:28:37.329Z,3.53
2023-04-11T17:32:20.119Z,5.53
2023-04-11T17:36:02.658Z,2.00
2023-04-11T17:39:46.913Z,4.95
2023-04-11T17:43:29.556Z,6.35
2023-04-11T17:47:12.313Z,4.53
2023-04-11T17:50:56.438Z,3.03
2023-04-11T17:54:38.851Z,3.53
2023-04-11T17:58:21.303Z,2.90
2023-04-11T18:02:03.659Z,2.97
2023-04-11T18:05:48.102Z,4.30
2023-04-11T18:09:32.372Z,6.47
2023-04-11T18:13:15.109Z,2.03
2023-04-11T18:16:57.999Z,5.65
2023-04-11T18:20:40.738Z,6.70
2023-04-11T18:24:24.347Z,6.30
2023-04-11T18:28:08.203Z,4.15
2023-04-11T18:32:19.895Z,3.95
2023-04-11T18:35:58.801Z,4.38
2023-04-11T18:39:41.913Z,5.25
2023-04-11T18:43:25.206Z,4.88
2023-04-11T18:47:10.587Z,4.25
2023-04-11T18:51:01.178Z,3.33
2023-04-11T18:54:45.637Z,8.02
2023-04-11T18:58:30.290Z,8.63
2023-04-11T19:02:15.431Z,9.75
2023-04-11T19:05:58.887Z,10.70
2023-04-11T19:09:42.442Z,8.80
2023-04-11T19:13:26.442Z,13.65
2023-04-11T19:17:11.500Z,10.02
2023-04-11T19:20:55.604Z,10.70
2023-04-11T19:24:39.002Z,11.77
2023-04-11T19:28:21.964Z,9.43
2023-04-11T19:32:08.792Z,10.77
2023-04-11T19:35:52.770Z,9.18
2023-04-11T19:39:38.181Z,15.32
2023-04-11T19:43:21.037Z,16.73
2023-04-11T19:47:06.869Z,11.70
2023-04-11T19:50:49.527Z,17.38
2023-04-11T19:54:33.969Z,17.20
2023-04-11T19:58:17.134Z,20.58
2023-04-11T20:02:02.098Z,21.60
2023-04-11T20:05:45.387Z,20.35
2023-04-11T20:09:29.644Z,16.85
2023-04-11T20:13:15.576Z,21.50
2023-04-11T20:16:59.927Z,16.73
2023-04-11T20:20:42.680Z,17.90
2023-04-11T20:24:25.361Z,23.45
2023-04-11T20:28:08.264Z,22.58
2023-04-11T20:31:51.450Z,23.52
2023-04-11T20:35:34.484Z,29.60
2023-04-11T20:39:17.285Z,18.25
2023-04-11T20:43:02.439Z,21.35
2023-04-11T20:46:46.646Z,20.15
2023-04-11T20:50:33.867Z,24.58
2023-04-11T20:57:58.871Z,17.58
2023-04-11T21:01:41.003Z,23.80
2023-04-11T21:05:23.025Z,16.90
2023-04-11T21:09:05.851Z,20.13
2023-04-11T21:12:54.343Z,19.48
2023-04-11T21:16:36.691Z,17.42
2023-04-11T21:20:19.754Z,18.33
2023-04-11T21:24:04.106Z,20.02
2023-04-11T21:27:46.806Z,22.77
2023-04-11T21:31:28.665Z,18.35
2023-04-11T21:35:11.596Z,16.02
2023-04-11T21:38:54.406Z,20.08
2023-04-11T21:42:36.458Z,28.88
2023-04-11T21:46:18.400Z,21.42
2023-04-11T21:50:00.399Z,22.55
2023-04-11T21:53:42.265Z,18.77
2023-04-11T21:57:24.114Z,21.40
2023-04-11T22:01:09.933Z,24.48
2023-04-11T22:05:04.494Z,25.02
2023-04-11T22:08:51.371Z,21.03
2023-04-11T22:12:33.207Z,19.88
2023-04-11T22:16:15.185Z,35.25
2023-04-11T22:20:00.127Z,20.52
2023-04-11T22:23:42.938Z,25.33
2023-04-11T22:27:28.085Z,27.85
2023-04-11T22:31:09.965Z,20.80
2023-04-11T22:34:51.888Z,31.52
2023-04-11T22:38:33.677Z,33.35
2023-04-11T22:42:15.908Z,32.70
2023-04-11T22:45:57.819Z,29.00
2023-04-11T22:49:42.775Z,28.23
2023-04-11T22:53:25.458Z,27.02
2023-04-11T22:57:07.411Z,28.98
2023-04-11T23:00:49.966Z,36.63
2023-04-11T23:04:32.619Z,34.40
2023-04-11T23:08:14.640Z,21.30
2023-04-11T23:11:56.570Z,38.20
2023-04-11T23:15:39.304Z,25.88
2023-04-11T23:19:21.073Z,20.70
2023-04-11T23:23:02.911Z,21.40
2023-04-11T23:26:44.839Z,28.58
2023-04-11T23:30:26.929Z,21.83
2023-04-11T23:34:08.700Z,18.38
2023-04-11T23:37:50.965Z,29.88
2023-04-11T23:41:32.777Z,24.95
2023-04-11T23:45:15.158Z,27.00
2023-04-11T23:48:56.998Z,21.55
2023-04-11T23:52:39.722Z,23.48
2023-04-11T23:56:23.122Z,21.60
